Time;durP1;ratioP1;P1;durP2;ratioP2;P2;SDS_P1;SDS_P2;PMS_P1;PMS_P2;Temp;Humidity;BMP_temperature;BMP_pressure;BME280_temperature;BME280_humidity;BME280_pressure;Samples;Min_cycle;Max_cycle;Signal;HPM_P1;HPM_P2
2022/11/10 00:00:10;;;;;;;0.10;0.10;;;;;;;11.74;74.99;101690.75;5058738;28;20036;-77
2022/11/10 00:02:36;;;;;;;0.22;0.22;;;;;;;11.76;76.02;101699.59;5060251;28;20071;-76
2022/11/10 00:05:02;;;;;;;0.10;0.10;;;;;;;11.82;75.54;101705.72;5066625;28;20112;-76
2022/11/10 00:07:28;;;;;;;0.10;0.10;;;;;;;11.86;75.06;101714.50;5068451;28;20665;-76
2022/11/10 00:09:55;;;;;;;0.10;0.10;;;;;;;11.82;75.30;101718.09;5058917;28;20037;-77
2022/11/10 00:12:22;;;;;;;0.10;0.10;;;;;;;11.83;74.64;101719.88;5067538;28;20032;-76
2022/11/10 00:17:36;;;;;;;0.10;0.10;;;;;;;11.79;74.57;101718.16;5067056;28;20405;-77
2022/11/10 00:20:03;;;;;;;0.10;0.10;;;;;;;11.73;75.20;101718.22;5064200;28;20815;-76
2022/11/10 00:22:29;;;;;;;0.10;0.10;;;;;;;11.65;75.76;101719.19;5068189;28;20021;-76
2022/11/10 00:24:55;;;;;;;0.90;0.90;;;;;;;11.62;75.98;101719.19;5062594;28;20028;-77
2022/11/10 00:27:22;;;;;;;0.10;0.10;;;;;;;11.67;75.75;101723.59;5061434;28;20555;-77
2022/11/10 00:29:48;;;;;;;0.20;0.20;;;;;;;11.65;75.07;101729.81;5056570;28;20029;-77
2022/11/10 00:32:14;;;;;;;0.10;0.10;;;;;;;11.62;75.67;101723.63;5052441;28;20392;-76
2022/11/10 00:34:40;;;;;;;0.30;0.30;;;;;;;11.65;75.86;101728.91;5054887;28;20566;-76
2022/11/10 00:37:06;;;;;;;0.10;0.10;;;;;;;11.64;75.64;101730.69;5060831;28;20029;-76
2022/11/10 00:39:32;;;;;;;0.10;0.10;;;;;;;11.65;75.38;101719.19;5055749;28;20025;-76
2022/11/10 00:41:58;;;;;;;0.10;0.10;;;;;;;11.67;75.51;101728.91;5048750;28;20025;-77
2022/11/10 00:44:24;;;;;;;0.10;0.10;;;;;;;11.69;75.41;101724.44;5055251;28;20505;-77
2022/11/10 00:46:50;;;;;;;0.10;0.10;;;;;;;11.67;76.31;101734.22;5063334;28;20031;-77
2022/11/10 00:49:16;;;;;;;0.10;0.10;;;;;;;11.69;76.09;101728.00;5066235;28;20024;-76
2022/11/10 00:51:42;;;;;;;0.30;0.30;;;;;;;11.70;75.98;101727.09;5069025;28;20028;-76
2022/11/10 00:54:09;;;;;;;0.10;0.10;;;;;;;11.75;75.59;101735.91;5065128;28;20020;-76
2022/11/10 00:56:35;;;;;;;0.20;0.20;;;;;;;11.69;75.93;101735.97;5067178;28;20048;-76
2022/11/10 00:59:01;;;;;;;0.50;0.50;;;;;;;11.67;76.08;101743.06;5056841;28;20034;-76
2022/11/10 01:01:27;;;;;;;0.10;0.10;;;;;;;11.67;75.72;101744.84;5064181;28;20040;-76
2022/11/10 01:03:53;;;;;;;0.20;0.20;;;;;;;11.64;75.62;101746.63;5051415;28;20052;-76
2022/11/10 01:06:21;;;;;;;0.20;0.20;;;;;;;11.67;75.69;101750.16;5057317;28;20036;-75
2022/11/10 01:08:48;;;;;;;0.10;0.10;;;;;;;11.64;75.93;101746.63;5058334;28;20032;-76
2022/11/10 01:11:18;;;;;;;0.10;0.10;;;;;;;11.68;75.78;101750.13;5063558;28;20075;-76
2022/11/10 01:13:45;;;;;;;0.08;0.08;;;;;;;11.69;75.56;101748.34;5062771;28;20028;-76
2022/11/10 01:16:14;;;;;;;1.60;1.50;;;;;;;11.70;76.04;101756.31;5069232;28;20032;-75
2022/11/10 01:18:40;;;;;;;0.10;0.10;;;;;;;11.74;75.83;101755.38;5064501;28;20024;-76
2022/11/10 01:21:07;;;;;;;0.10;0.10;;;;;;;11.76;75.46;101750.94;5067131;28;20036;-75
2022/11/10 01:23:33;;;;;;;0.10;0.10;;;;;;;11.72;76.42;101762.47;5066288;28;20024;-76
2022/11/10 01:26:03;;;;;;;0.10;0.10;;;;;;;11.77;75.73;101752.66;5071333;28;20028;-76
2022/11/10 01:28:30;;;;;;;0.10;0.10;;;;;;;11.75;76.42;101758.91;5063665;28;20039;-76
2022/11/10 01:30:59;;;;;;;0.10;0.10;;;;;;;11.70;76.16;101756.31;5058720;28;20082;-76
2022/11/10 01:33:26;;;;;;;0.10;0.10;;;;;;;11.70;75.78;101760.72;5063341;28;20025;-76
2022/11/10 01:35:52;;;;;;;0.20;0.20;;;;;;;11.65;75.61;101755.44;5070560;28;20472;-75
2022/11/10 01:38:18;;;;;;;0.10;0.10;;;;;;;11.64;76.24;101761.69;5066920;28;20028;-77
2022/11/10 01:40:45;;;;;;;0.10;0.10;;;;;;;11.63;75.58;101760.78;5067883;28;20028;-77
2022/11/10 01:43:12;;;;;;;0.10;0.10;;;;;;;11.61;75.51;101757.28;5068289;28;20032;-76
2022/11/10 01:45:59;;;;;;;0.10;0.10;;;;;;;11.62;75.83;101758.16;5068708;28;20035;-77
2022/11/10 01:51:22;;;;;;;0.10;0.10;;;;;;;11.57;75.47;101766.16;5049778;28;20358;-76
2022/11/10 01:53:55;;;;;;;0.28;0.28;;;;;;;11.57;75.56;101771.44;5050354;28;20021;-76
2022/11/10 01:56:23;;;;;;;0.10;0.10;;;;;;;11.56;75.79;101779.44;5049242;28;20059;-76
2022/11/10 01:58:55;;;;;;;0.30;0.30;;;;;;;11.54;75.83;101782.13;5043511;28;20476;-77
2022/11/10 02:01:23;;;;;;;0.10;0.10;;;;;;;11.53;75.99;101780.34;5046599;28;20076;-76
2022/11/10 02:03:54;;;;;;;0.52;0.52;;;;;;;11.49;75.47;101791.91;5045338;28;20022;-76
2022/11/10 02:06:24;;;;;;;0.10;0.10;;;;;;;11.47;76.19;101797.19;5047424;28;20500;-77
2022/11/10 02:08:52;;;;;;;0.10;0.10;;;;;;;11.48;75.38;101803.41;5046864;28;20091;-76
2022/11/10 02:11:18;;;;;;;0.43;0.43;;;;;;;11.43;76.17;101799.91;5047679;28;20144;-76
2022/11/10 02:13:45;;;;;;;0.10;0.10;;;;;;;11.44;75.91;101804.28;5042346;28;20507;-76
2022/11/10 02:16:11;;;;;;;0.10;0.10;;;;;;;11.41;76.05;101812.28;5040299;28;20029;-76
2022/11/10 02:18:37;;;;;;;0.10;0.10;;;;;;;11.37;76.67;101808.78;5042395;28;20451;-75
2022/11/10 02:21:05;;;;;;;0.10;0.10;;;;;;;11.41;76.19;101818.47;5044839;28;20040;-77
2022/11/10 02:26:08;;;;;;;0.10;0.10;;;;;;;11.33;76.67;101820.31;5057187;28;20099;-76
2022/11/10 02:28:36;;;;;;;0.10;0.10;;;;;;;11.38;77.04;101820.28;5043179;28;20036;-77
2022/11/10 02:31:04;;;;;;;0.10;0.10;;;;;;;11.39;76.61;101825.59;5043742;28;20032;-76
2022/11/10 02:33:30;;;;;;;0.10;0.10;;;;;;;11.41;76.67;101834.38;5041607;28;20477;-76
2022/11/10 02:35:56;;;;;;;0.20;0.20;;;;;;;11.39;76.59;101835.28;5042654;28;20029;-77
2022/11/10 02:38:22;;;;;;;0.10;0.10;;;;;;;11.39;76.33;101837.94;5042062;28;20505;-76
2022/11/10 02:40:49;;;;;;;2.47;2.28;;;;;;;11.39;76.62;101835.28;5044256;28;20026;-76
2022/11/10 02:43:17;;;;;;;0.10;0.10;;;;;;;11.38;76.34;101844.19;5043523;28;20083;-76
2022/11/10 02:45:44;;;;;;;0.10;0.10;;;;;;;11.37;76.77;101847.72;5042994;28;20049;-77
2022/11/10 02:48:11;;;;;;;0.10;0.10;;;;;;;11.37;76.69;101848.59;5043933;28;20037;-76
2022/11/10 02:50:38;;;;;;;0.10;0.10;;;;;;;11.36;76.57;101857.44;5043952;28;20027;-77
2022/11/10 02:53:04;;;;;;;0.10;0.10;;;;;;;11.37;76.55;101859.19;5044477;28;20044;-76
2022/11/10 02:55:31;;;;;;;0.10;0.10;;;;;;;11.32;76.27;101856.56;5042855;28;20053;-77
2022/11/10 02:57:58;;;;;;;0.05;0.05;;;;;;;11.29;76.93;101845.09;5041485;28;20037;-75
2022/11/10 03:00:24;;;;;;;1.92;1.75;;;;;;;11.33;76.41;101863.63;5044266;28;20065;-77
2022/11/10 03:03:00;;;;;;;0.10;0.10;;;;;;;11.32;75.74;101869.84;5043283;28;20040;-76
2022/11/10 03:05:27;;;;;;;0.10;0.10;;;;;;;11.31;76.26;101864.53;5039675;28;20157;-76
2022/11/10 03:07:55;;;;;;;0.10;0.10;;;;;;;11.30;76.15;101868.97;5046492;28;20856;-77
2022/11/10 03:10:22;;;;;;;0.85;0.85;;;;;;;11.27;75.78;101868.13;5040293;28;20048;-77
2022/11/10 03:12:48;;;;;;;0.10;0.10;;;;;;;11.23;75.80;101866.38;5044473;28;20410;-76
2022/11/10 03:15:14;;;;;;;0.35;0.35;;;;;;;11.19;75.56;101873.47;5042371;28;20037;-76
2022/11/10 03:17:41;;;;;;;0.10;0.10;;;;;;;11.15;76.38;101875.25;5042941;28;20043;-76
2022/11/10 03:20:08;;;;;;;0.10;0.10;;;;;;;11.09;76.40;101877.06;5044692;28;20048;-76
2022/11/10 03:22:34;;;;;;;6.13;2.55;;;;;;;11.07;76.04;101877.06;5041908;28;20031;-76
2022/11/10 03:25:00;;;;;;;0.10;0.10;;;;;;;11.00;75.70;101884.19;5043830;28;20032;-77
2022/11/10 03:27:26;;;;;;;0.10;0.10;;;;;;;11.00;75.98;101877.97;5044298;28;20061;-77
2022/11/10 03:29:52;;;;;;;0.10;0.10;;;;;;;10.95;76.44;101877.13;5039749;28;20864;-76
2022/11/10 03:32:18;;;;;;;0.10;0.10;;;;;;;10.95;76.31;101883.34;5040269;28;20593;-77
2022/11/10 03:34:45;;;;;;;0.98;0.98;;;;;;;10.91;76.29;101881.56;5042361;28;20021;-76
2022/11/10 03:37:11;;;;;;;0.10;0.10;;;;;;;10.94;76.27;101893.91;5029437;28;20033;-77
2022/11/10 03:39:38;;;;;;;0.00;0.00;;;;;;;10.92;75.83;101888.63;5030998;28;20075;-76
2022/11/10 03:42:04;;;;;;;0.10;0.10;;;;;;;10.84;76.62;101896.63;5033438;28;20455;-76
2022/11/10 03:44:30;;;;;;;0.10;0.10;;;;;;;10.77;77.11;101900.19;5031111;28;20025;-76
2022/11/10 03:46:56;;;;;;;0.10;0.10;;;;;;;10.83;76.86;101904.59;5027856;28;20041;-76
2022/11/10 03:49:22;;;;;;;0.10;0.10;;;;;;;10.80;77.20;101904.59;5029921;28;20121;-77
2022/11/10 03:51:48;;;;;;;1.08;0.65;;;;;;;10.85;77.00;101902.78;5021228;28;20025;-77
2022/11/10 03:54:14;;;;;;;0.20;0.20;;;;;;;10.84;76.55;101912.53;5029400;28;20468;-77
2022/11/10 03:56:41;;;;;;;0.10;0.10;;;;;;;10.87;77.26;101911.63;5030747;28;20513;-77
2022/11/10 03:59:07;;;;;;;0.10;0.10;;;;;;;10.89;77.21;101920.47;5030653;28;20056;-77
2022/11/10 04:01:33;;;;;;;0.15;0.15;;;;;;;10.92;76.97;101919.59;5030872;28;20041;-77
2022/11/10 04:03:59;;;;;;;0.10;0.10;;;;;;;10.90;77.42;101916.91;5025184;28;20038;-77
2022/11/10 04:09:11;;;;;;;1.75;0.68;;;;;;;10.93;77.37;101938.13;5029141;28;20048;-77
2022/11/10 04:17:09;;;;;;;0.10;0.10;;;;;;;10.97;76.97;101947.81;5029955;28;20504;-77
2022/11/10 04:19:35;;;;;;;0.20;0.20;;;;;;;10.93;77.21;101951.38;5032688;28;20125;-76
2022/11/10 04:22:01;;;;;;;0.20;0.20;;;;;;;10.92;77.39;101954.06;5034144;28;20041;-76
2022/11/10 04:24:27;;;;;;;0.20;0.20;;;;;;;10.94;77.24;101963.75;5030991;28;20025;-76
2022/11/10 04:26:53;;;;;;;0.15;0.15;;;;;;;11.01;76.80;101967.25;5025267;28;20126;-76
2022/11/10 04:29:20;;;;;;;0.20;0.20;;;;;;;10.95;77.26;101962.88;5031333;28;20033;-76
2022/11/10 04:31:46;;;;;;;0.10;0.10;;;;;;;10.96;77.52;101958.44;5031133;28;20036;-76
2022/11/10 04:34:14;;;;;;;0.10;0.10;;;;;;;11.02;77.57;101968.16;5034139;28;20108;-76
2022/11/10 04:36:42;;;;;;;0.10;0.10;;;;;;;11.00;77.58;101961.09;5031615;28;20072;-77
2022/11/10 04:39:09;;;;;;;0.10;0.10;;;;;;;11.02;77.54;101969.03;5029749;28;20484;-76
2022/11/10 04:41:36;;;;;;;0.90;0.90;;;;;;;10.99;77.72;101959.31;5029978;28;20034;-77
2022/11/10 04:44:02;;;;;;;0.10;0.10;;;;;;;11.04;77.33;101969.03;5030654;28;20026;-77
2022/11/10 04:46:31;;;;;;;0.10;0.10;;;;;;;11.07;77.08;101982.28;5028956;28;20030;-76
2022/11/10 04:48:58;;;;;;;1.05;1.05;;;;;;;11.04;77.19;101982.28;5031716;28;20124;-77
2022/11/10 04:51:28;;;;;;;0.10;0.10;;;;;;;11.06;77.36;101981.38;5030203;28;20033;-76
2022/11/10 04:53:54;;;;;;;0.10;0.10;;;;;;;11.06;76.81;101985.81;5031017;28;20163;-76
2022/11/10 04:56:23;;;;;;;0.10;0.10;;;;;;;11.06;77.06;101980.50;5032629;28;20041;-77
2022/11/10 04:58:50;;;;;;;0.10;0.10;;;;;;;11.03;77.24;101985.81;5029112;28;20017;-77
2022/11/10 05:01:20;;;;;;;0.10;0.10;;;;;;;11.03;77.09;101991.13;5030824;28;20497;-76
2022/11/10 05:03:47;;;;;;;0.20;0.20;;;;;;;11.02;77.71;102000.00;5023554;28;20032;-76
2022/11/10 05:06:14;;;;;;;0.10;0.10;;;;;;;11.00;77.52;101992.91;5024206;28;20045;-76
2022/11/10 05:08:41;;;;;;;0.10;0.10;;;;;;;11.00;77.23;101987.63;5026044;28;20041;-77
2022/11/10 05:11:07;;;;;;;0.73;0.73;;;;;;;11.02;76.65;101994.69;5028766;28;20730;-77
2022/11/10 05:13:34;;;;;;;0.10;0.10;;;;;;;11.00;77.69;101999.97;5028523;28;20103;-76
2022/11/10 05:16:00;;;;;;;0.40;0.40;;;;;;;11.05;77.46;102010.56;5027813;28;20025;-77
2022/11/10 05:18:26;;;;;;;0.10;0.10;;;;;;;11.03;77.05;102007.94;5025417;28;20034;-77
2022/11/10 05:20:52;;;;;;;0.10;0.10;;;;;;;11.02;76.90;102010.59;5026622;28;20090;-76
2022/11/10 05:23:50;;;;;;;0.45;0.45;;;;;;;11.03;76.97;102004.38;5027778;28;20444;-76
2022/11/10 05:26:08;;;;;;;0.80;0.80;;;;;;;11.04;77.29;102014.09;5027063;28;20041;-77
2022/11/10 05:28:35;;;;;;;0.52;0.52;;;;;;;11.08;76.77;102011.44;5027308;28;20033;-76
2022/11/10 05:31:01;;;;;;;0.40;0.40;;;;;;;11.11;76.84;102015.84;5023076;28;20033;-76
2022/11/10 05:33:27;;;;;;;1.85;1.75;;;;;;;11.02;77.19;102015.91;5027774;28;20025;-77
2022/11/10 05:35:53;;;;;;;0.32;0.32;;;;;;;11.03;77.55;102013.22;5025108;28;20370;-77
2022/11/10 05:38:19;;;;;;;0.63;0.63;;;;;;;11.04;77.67;102019.41;5026800;28;20463;-77
2022/11/10 05:40:45;;;;;;;0.10;0.10;;;;;;;11.06;77.71;102017.66;5030850;28;20017;-77
2022/11/10 05:43:11;;;;;;;0.10;0.10;;;;;;;11.00;77.55;102022.09;5024878;28;20038;-76
2022/11/10 05:45:37;;;;;;;0.47;0.47;;;;;;;11.03;77.41;102015.88;5025276;28;20232;-76
2022/11/10 05:48:03;;;;;;;0.10;0.10;;;;;;;11.00;76.61;102007.94;5025961;28;20521;-76
2022/11/10 05:50:29;;;;;;;5.88;1.15;;;;;;;10.99;77.11;102003.50;5027020;28;20116;-77
2022/11/10 05:52:55;;;;;;;0.10;0.10;;;;;;;10.96;76.50;102009.69;5027373;28;20029;-76
2022/11/10 05:55:24;;;;;;;0.15;0.15;;;;;;;10.99;76.66;102011.47;5026245;28;20037;-76
2022/11/10 05:57:53;;;;;;;0.10;0.10;;;;;;;10.96;76.93;102015.00;5030547;28;20386;-77
2022/11/10 06:00:22;;;;;;;0.10;0.10;;;;;;;10.92;76.97;102013.25;5023421;28;20045;-77
2022/11/10 06:03:06;;;;;;;0.10;0.10;;;;;;;10.97;76.80;102016.78;5028636;28;20029;-76
2022/11/10 06:05:34;;;;;;;0.40;0.40;;;;;;;10.87;77.22;102033.59;5023719;28;20041;-76
2022/11/10 06:08:02;;;;;;;0.10;0.10;;;;;;;10.89;77.52;102041.53;5022231;28;20117;-77
2022/11/10 06:10:29;;;;;;;0.10;0.10;;;;;;;10.88;77.20;102042.44;5011706;28;20405;-76
2022/11/10 06:12:55;;;;;;;1.15;1.15;;;;;;;10.87;77.53;102049.50;5026936;28;20030;-76
2022/11/10 06:15:22;;;;;;;2.55;2.35;;;;;;;10.86;77.07;102063.66;5020401;28;20030;-77
2022/11/10 06:17:48;;;;;;;0.10;0.10;;;;;;;10.83;77.32;102061.00;5027334;28;20079;-77
2022/11/10 06:20:16;;;;;;;0.10;0.10;;;;;;;10.85;77.39;102077.78;5015331;28;20034;-76
2022/11/10 06:22:43;;;;;;;0.10;0.10;;;;;;;10.86;77.06;102082.22;5016893;28;20421;-77
2022/11/10 06:25:10;;;;;;;0.10;0.10;;;;;;;10.86;77.64;102079.56;5021144;28;20034;-77
2022/11/10 06:27:36;;;;;;;0.45;0.45;;;;;;;10.85;77.91;102083.09;5018074;28;20509;-77
2022/11/10 06:30:03;;;;;;;0.10;0.10;;;;;;;10.86;77.76;102079.56;5013152;28;20046;-76
2022/11/10 06:32:31;;;;;;;0.05;0.05;;;;;;;10.91;77.87;102082.22;5015344;28;20068;-76
2022/11/10 06:34:57;;;;;;;0.10;0.10;;;;;;;10.91;77.71;102087.50;5013242;28;20498;-75
2022/11/10 06:37:23;;;;;;;0.10;0.10;;;;;;;10.93;77.51;102093.69;5019678;28;20091;-76
2022/11/10 06:39:49;;;;;;;0.17;0.17;;;;;;;10.91;77.79;102099.00;5020751;28;20037;-76
2022/11/10 06:42:15;;;;;;;0.10;0.10;;;;;;;10.95;77.53;102095.47;5017598;28;20041;-76
2022/11/10 06:44:42;;;;;;;0.30;0.30;;;;;;;10.95;77.49;102094.56;5021214;28;20034;-75
2022/11/10 06:47:08;;;;;;;3.10;2.33;;;;;;;10.94;77.49;102106.97;5022755;28;20041;-76
2022/11/10 06:49:34;;;;;;;0.43;0.43;;;;;;;10.93;78.04;102118.44;5038208;28;20130;-77
2022/11/10 06:52:00;;;;;;;0.20;0.20;;;;;;;10.95;77.71;102121.09;5018627;28;20045;-76
2022/11/10 06:54:26;;;;;;;0.35;0.35;;;;;;;10.95;77.76;102129.94;5025588;28;20029;-77
2022/11/10 06:56:52;;;;;;;0.10;0.10;;;;;;;10.96;77.95;102131.69;5025179;28;20032;-77
2022/11/10 06:59:18;;;;;;;0.10;0.10;;;;;;;10.97;77.42;102144.06;5025319;28;20030;-77
2022/11/10 07:01:44;;;;;;;0.10;0.10;;;;;;;10.93;78.00;102147.63;5015779;28;20036;-77
2022/11/10 07:04:10;;;;;;;0.10;0.10;;;;;;;10.97;77.71;102152.03;5022325;28;20037;-76
2022/11/10 07:06:36;;;;;;;0.90;0.90;;;;;;;10.99;77.55;102163.53;5019583;28;20128;-77
2022/11/10 07:09:02;;;;;;;0.20;0.20;;;;;;;11.01;77.90;102158.22;5015716;28;20077;-76
2022/11/10 07:11:28;;;;;;;0.10;0.10;;;;;;;10.95;78.23;102172.38;5019672;28;20043;-77
2022/11/10 07:13:54;;;;;;;0.10;0.10;;;;;;;11.01;77.88;102163.50;5025112;28;20503;-77
2022/11/10 07:16:20;;;;;;;0.10;0.10;;;;;;;11.04;77.68;102158.22;5021674;28;20030;-77
2022/11/10 07:18:47;;;;;;;0.10;0.10;;;;;;;11.06;77.95;102160.88;5014442;28;20087;-77
2022/11/10 07:21:14;;;;;;;0.10;0.10;;;;;;;11.08;77.80;102153.78;5016280;28;20040;-77
2022/11/10 07:23:40;;;;;;;0.20;0.20;;;;;;;11.08;77.98;102156.41;5027660;28;20022;-77
2022/11/10 07:26:07;;;;;;;0.15;0.15;;;;;;;11.07;77.78;102144.94;5014396;28;20034;-77
2022/11/10 07:28:33;;;;;;;0.10;0.10;;;;;;;11.14;77.95;102140.50;5018374;28;20042;-77
2022/11/10 07:31:02;;;;;;;1.20;1.20;;;;;;;11.19;77.90;102144.06;5020813;28;20116;-77
2022/11/10 07:33:28;;;;;;;0.17;0.17;;;;;;;11.18;77.91;102152.91;5014900;28;20105;-77
2022/11/10 07:35:59;;;;;;;0.10;0.10;;;;;;;11.28;78.22;102167.91;5028865;28;20025;-77
2022/11/10 07:38:25;;;;;;;0.10;0.10;;;;;;;11.32;78.10;102166.13;5024256;28;20033;-77
2022/11/10 07:40:52;;;;;;;0.10;0.10;;;;;;;11.35;77.93;102179.38;5017936;28;20064;-77
2022/11/10 07:43:21;;;;;;;1.92;0.75;;;;;;;11.45;77.86;102186.47;5025785;28;20120;-77
2022/11/10 07:45:49;;;;;;;0.38;0.38;;;;;;;11.47;78.42;102186.44;5018146;28;20025;-77
2022/11/10 07:48:15;;;;;;;0.10;0.10;;;;;;;11.49;78.40;102171.41;5015742;28;20026;-76
2022/11/10 07:50:41;;;;;;;0.10;0.10;;;;;;;11.50;78.13;102178.47;5016607;28;20520;-76
2022/11/10 07:53:11;;;;;;;0.30;0.30;;;;;;;11.59;78.04;102178.47;5026128;28;20033;-77
2022/11/10 07:55:38;;;;;;;0.10;0.10;;;;;;;11.67;77.74;102174.91;5017356;28;20022;-76
2022/11/10 07:58:05;;;;;;;0.10;0.10;;;;;;;11.76;78.43;102170.44;5014632;28;20029;-77
2022/11/10 08:00:32;;;;;;;0.43;0.43;;;;;;;11.81;78.15;102186.34;5030021;28;20080;-76
2022/11/10 08:03:04;;;;;;;0.10;0.10;;;;;;;11.90;77.81;102186.31;5023821;28;20038;-77
2022/11/10 08:05:31;;;;;;;0.10;0.10;;;;;;;12.00;77.93;102183.66;5024584;28;20034;-77
2022/11/10 08:07:57;;;;;;;0.10;0.10;;;;;;;12.05;77.77;102182.75;5021589;28;20034;-76
2022/11/10 08:10:23;;;;;;;0.20;0.20;;;;;;;12.17;77.66;102196.88;5021057;28;20036;-77
2022/11/10 08:12:58;;;;;;;0.10;0.10;;;;;;;12.29;77.75;102196.81;5013868;28;20113;-77
2022/11/10 08:15:27;;;;;;;1.30;1.20;;;;;;;12.33;77.98;102190.56;5014080;28;20028;-77
2022/11/10 08:17:59;;;;;;;2.25;2.05;;;;;;;12.41;77.68;102194.06;5014500;28;20034;-77
2022/11/10 08:20:25;;;;;;;;;;;;;;;12.57;76.59;102204.59;5025817;28;20032;-77
2022/11/10 08:22:58;;;;;;;0.35;0.35;;;;;;;12.56;76.87;102195.75;5015278;28;19928;-76
2022/11/10 08:25:25;;;;;;;0.10;0.10;;;;;;;12.61;76.60;102214.31;5020922;28;20057;-77
2022/11/10 08:28:13;;;;;;;0.47;0.47;;;;;;;12.69;75.97;102216.94;5014374;28;20033;-76
2022/11/10 08:30:41;;;;;;;1.42;1.33;;;;;;;12.77;76.59;102225.72;5015324;28;20092;-77
2022/11/10 08:33:10;;;;;;;0.10;0.10;;;;;;;12.83;76.26;102220.38;5013669;28;20033;-77
2022/11/10 08:35:38;;;;;;;0.30;0.30;;;;;;;12.85;76.27;102220.38;5018019;28;20029;-76
2022/11/10 08:38:07;;;;;;;0.10;0.10;;;;;;;12.87;75.91;102222.13;5021512;28;20033;-77
2022/11/10 08:40:33;;;;;;;0.28;0.28;;;;;;;12.89;75.95;102225.66;5031086;28;20095;-77
2022/11/10 08:43:01;;;;;;;0.68;0.68;;;;;;;12.89;75.48;102235.41;5025653;28;20037;-77
2022/11/10 08:45:27;;;;;;;0.75;0.75;;;;;;;12.89;75.98;102246.94;5031765;28;20116;-77
2022/11/10 08:47:59;;;;;;;0.10;0.10;;;;;;;12.98;75.77;102235.34;5029867;28;20412;-77
2022/11/10 08:50:26;;;;;;;0.10;0.10;;;;;;;12.93;75.90;102243.38;5015895;28;20026;-77
2022/11/10 08:52:52;;;;;;;0.10;0.10;;;;;;;13.01;75.27;102245.06;5023435;28;20021;-78
2022/11/10 08:55:19;;;;;;;0.10;0.10;;;;;;;13.02;74.86;102241.53;5020636;28;20022;-77
2022/11/10 08:57:45;;;;;;;0.10;0.10;;;;;;;13.06;75.03;102237.94;5019278;28;20112;-76
2022/11/10 09:00:13;;;;;;;0.10;0.10;;;;;;;13.12;74.94;102237.88;5013743;28;20516;-77
2022/11/10 09:02:39;;;;;;;0.10;0.10;;;;;;;13.15;74.58;102235.22;5033070;28;20026;-77
2022/11/10 09:05:05;;;;;;;0.10;0.10;;;;;;;13.24;74.87;102236.91;5032157;28;20065;-77
2022/11/10 09:07:33;;;;;;;0.10;0.10;;;;;;;13.29;74.77;102242.19;5031747;28;20567;-77
2022/11/10 09:09:59;;;;;;;0.10;0.10;;;;;;;13.24;73.90;102248.41;5032389;28;20037;-78
2022/11/10 09:12:25;;;;;;;1.45;0.68;;;;;;;13.35;74.29;102243.00;5031349;28;20029;-77
2022/11/10 09:14:51;;;;;;;0.10;0.10;;;;;;;13.39;74.28;102249.22;5028669;28;20040;-78
2022/11/10 09:17:17;;;;;;;1.35;1.27;;;;;;;13.46;73.94;102250.03;5032762;28;20060;-77
2022/11/10 09:19:43;;;;;;;0.17;0.17;;;;;;;13.46;74.08;102255.38;5032502;28;20018;-77
2022/11/10 09:22:09;;;;;;;0.10;0.10;;;;;;;13.59;73.94;102249.94;5026884;28;20107;-77
2022/11/10 09:24:35;;;;;;;0.10;0.10;;;;;;;13.71;74.39;102254.22;5032377;28;20475;-77
2022/11/10 09:27:01;;;;;;;0.10;0.10;;;;;;;13.81;73.69;102246.16;5032591;28;20082;-77
2022/11/10 09:29:27;;;;;;;0.20;0.20;;;;;;;13.85;73.16;102251.41;5025652;28;20033;-78
2022/11/10 09:31:53;;;;;;;0.10;0.10;;;;;;;13.96;73.35;102245.09;5032245;28;20033;-77
2022/11/10 09:34:19;;;;;;;0.63;0.63;;;;;;;14.01;73.65;102262.78;5027535;28;20104;-78
2022/11/10 09:36:46;;;;;;;0.10;0.10;;;;;;;14.12;72.88;102257.34;5019554;28;20024;-78
2022/11/10 09:39:12;;;;;;;0.10;0.10;;;;;;;14.15;72.29;102264.41;5020151;28;20018;-77
2022/11/10 09:41:39;;;;;;;0.10;0.10;;;;;;;14.22;72.31;102261.66;5012883;28;20033;-78
2022/11/10 09:44:22;;;;;;;0.15;0.15;;;;;;;14.38;72.01;102266.75;5013297;28;20394;-77
2022/11/10 09:46:56;;;;;;;1.75;1.65;;;;;;;14.41;71.90;102277.41;5019388;28;20121;-77
2022/11/10 09:52:17;;;;;;;0.10;0.10;;;;;;;14.53;71.39;102274.59;5044696;28;20412;-78
2022/11/10 09:55:12;;;;;;;1.10;1.00;;;;;;;14.69;70.54;102279.72;5047280;28;20128;-76
2022/11/10 09:57:40;;;;;;;0.10;0.10;;;;;;;14.73;70.34;102294.81;5037425;28;20072;-78
2022/11/10 10:00:09;;;;;;;0.10;0.10;;;;;;;14.79;69.84;102293.81;5032041;28;20029;-78
2022/11/10 10:02:47;;;;;;;0.10;0.10;;;;;;;14.94;70.06;102298.03;5038748;28;20029;-77
2022/11/10 10:05:46;;;;;;;0.65;0.57;;;;;;;15.05;69.93;102317.44;5035043;28;20042;-78
2022/11/10 10:08:37;;;;;;;0.10;0.10;;;;;;;15.07;69.16;102331.66;5034380;28;20117;-77
2022/11/10 10:11:24;;;;;;;0.80;0.47;;;;;;;15.09;68.98;102335.19;5033629;28;20052;-77
2022/11/10 10:14:06;;;;;;;0.10;0.10;;;;;;;15.16;68.98;102347.53;5039235;28;20033;-77
2022/11/10 10:19:36;;;;;;;0.10;0.10;;;;;;;15.13;68.94;102350.25;5096713;27;1176381;-78
2022/11/10 10:22:31;;;;;;;0.10;0.10;;;;;;;15.18;68.47;102358.22;5100069;27;20035;-77
2022/11/10 10:25:00;;;;;;;0.40;0.40;;;;;;;15.22;68.98;102365.25;5103533;28;20043;-77
2022/11/10 10:27:28;;;;;;;2.90;0.68;;;;;;;15.25;68.53;102348.31;5105387;28;20442;-78
2022/11/10 10:29:54;;;;;;;0.10;0.10;;;;;;;15.33;68.54;102344.59;5107626;28;20031;-77
2022/11/10 10:32:21;;;;;;;0.20;0.20;;;;;;;15.43;68.50;102350.69;5108501;28;20158;-77
2022/11/10 10:34:47;;;;;;;1.00;1.00;;;;;;;15.43;67.91;102339.13;5108610;28;20023;-77
2022/11/10 10:39:57;;;;;;;0.20;0.20;;;;;;;15.60;67.04;102349.50;5098926;27;20907;-78
2022/11/10 10:42:39;;;;;;;4.15;1.75;;;;;;;15.70;66.84;102343.09;5086704;28;20076;-78
2022/11/10 10:45:23;;;;;;;0.20;0.20;;;;;;;15.75;66.62;102346.59;5085244;28;20437;-78
2022/11/10 10:47:52;;;;;;;0.75;0.75;;;;;;;15.60;66.66;102342.41;5075138;28;20516;-78
2022/11/10 10:53:16;;;;;;;0.10;0.10;;;;;;;15.76;66.44;102353.69;5045155;28;20430;-77
2022/11/10 10:56:07;;;;;;;0.05;0.05;;;;;;;15.74;66.41;102360.84;5029538;28;20040;-77
2022/11/10 10:58:47;;;;;;;0.10;0.10;;;;;;;15.76;66.65;102363.50;5015147;28;20033;-76
2022/11/10 11:03:51;;;;;;;0.10;0.10;;;;;;;15.69;66.10;102357.38;5069202;28;20369;-78
2022/11/10 11:09:14;;;;;;;0.13;0.13;;;;;;;15.63;66.61;102368.19;5045993;28;21971;-78
2022/11/10 11:11:42;;;;;;;0.30;0.30;;;;;;;15.60;66.85;102368.22;5038696;28;20068;-79
2022/11/10 11:14:26;;;;;;;0.10;0.10;;;;;;;15.71;66.67;102376.94;5037333;28;20049;-78
2022/11/10 11:17:16;;;;;;;0.10;0.10;;;;;;;15.71;66.58;102382.28;5044656;28;20048;-78
2022/11/10 11:19:42;;;;;;;0.10;0.10;;;;;;;15.78;66.29;102383.94;5049091;28;20033;-77
2022/11/10 11:22:46;;;;;;;0.10;0.10;;;;;;;15.92;66.31;102390.88;5047400;28;20060;-77
2022/11/10 11:31:08;;;;;;;0.35;0.35;;;;;;;16.18;66.23;102409.97;5101529;27;20398;-77
2022/11/10 11:36:33;;;;;;;0.10;0.10;;;;;;;16.25;64.87;102416.13;5092704;27;20367;-77
2022/11/10 11:53:13;;;;;;;0.10;0.10;;;;;;;16.15;64.62;102423.41;5106647;27;20750;-78
2022/11/10 11:56:08;;;;;;;0.10;0.10;;;;;;;16.15;64.36;102425.22;5090086;28;20040;-78
2022/11/10 11:58:44;;;;;;;0.10;0.10;;;;;;;16.07;64.12;102428.00;5071588;28;20048;-78
2022/11/10 12:04:20;;;;;;;0.10;0.10;;;;;;;16.11;64.13;102427.06;5069159;28;20372;-77
2022/11/10 12:07:14;;;;;;;4.63;1.65;;;;;;;16.14;64.32;102426.13;5062187;28;20057;-77
2022/11/10 12:09:54;;;;;;;1.98;1.85;;;;;;;16.14;64.06;102418.97;5046496;28;20534;-78
2022/11/10 12:12:49;;;;;;;0.08;0.08;;;;;;;16.26;64.35;102416.97;5049106;28;20029;-78
2022/11/10 12:24:05;;;;;;;0.10;0.10;;;;;;;16.35;63.42;102432.88;5064320;28;20417;-78
2022/11/10 12:26:54;;;;;;;0.20;0.20;;;;;;;16.27;63.42;102438.34;5051267;28;20029;-78
2022/11/10 12:29:30;;;;;;;0.45;0.25;;;;;;;16.18;63.40;102435.84;5048393;28;20033;-78
2022/11/10 12:32:04;;;;;;;2.35;2.25;;;;;;;16.23;63.42;102433.09;5055430;28;20585;-77
2022/11/10 12:34:54;;;;;;;0.10;0.10;;;;;;;16.32;63.48;102444.53;5048778;28;20090;-77
2022/11/10 12:40:24;;;;;;;0.20;0.20;;;;;;;16.29;63.41;102433.00;5083595;28;20360;-77
2022/11/10 12:43:16;;;;;;;0.10;0.10;;;;;;;16.28;63.06;102431.22;5062061;28;20116;-78